Taneytown, Maryland
Current Conditions -  °F | °C
As of 10:55 PM on Saturday 24 Jan 2015 (Local Time) from KDMW Reporting Station
Overcast Overcast  
Wind Chill: 27°   Ceiling: 2900
Heat Index: 36°   Visibility: 10mi
Dew Point: 27°   Wind: 14mph
Humidity: 70%   Direction: 280°W
Pressure: 29.6"   Gusts: 21mph
Location:  39.66°N, 77.17°W
Report Text: KDMW 250355Z AUTO 28012G18KT 10SM BKN029 OVC060 02/M03 A2960 RMK AO2 FZRANO
Loading
Personal Weather Stations






























Interactive Weather Map New forecast layout! Learn more

10-Day Weather Forecast

Advertisements
Track Severe Weather on mobile